Time;durP1;ratioP1;P1;durP2;ratioP2;P2;SDS_P1;SDS_P2;PMS_P1;PMS_P2;Temp;Humidity;BMP_temperature;BMP_pressure;BME280_temperature;BME280_humidity;BME280_pressure;Samples;Min_cycle;Max_cycle;Signal;HPM_P1;HPM_P2
2021/03/11 00:00:38;;;;;;;74.43;39.65;;;;;;;-6.88;66.87;96394.50;5009369;28;20337;-55
2021/03/11 00:03:18;;;;;;;68.57;39.00;;;;;;;-6.93;66.84;96386.41;4999078;28;20071;-56
2021/03/11 00:05:46;;;;;;;73.53;37.25;;;;;;;-7.01;67.02;96371.69;4973417;28;20055;-56
2021/03/11 00:08:14;;;;;;;83.70;42.35;;;;;;;-6.95;67.23;96398.53;5002221;28;20488;-55
2021/03/11 00:10:41;;;;;;;67.45;34.10;;;;;;;-6.96;67.34;96396.94;5012007;28;20049;-56
2021/03/11 00:13:09;;;;;;;68.10;33.97;;;;;;;-6.97;67.63;96388.44;4991132;28;20057;-56
2021/03/11 00:15:40;;;;;;;66.35;34.78;;;;;;;-6.93;67.68;96394.09;4986371;28;20056;-56
2021/03/11 00:18:09;;;;;;;75.55;35.65;;;;;;;-6.93;67.35;96390.72;5009182;28;20064;-56
2021/03/11 00:20:38;;;;;;;72.18;36.88;;;;;;;-6.96;67.16;96386.69;5000748;28;20060;-56
2021/03/11 00:23:05;;;;;;;74.35;34.08;;;;;;;-6.96;66.86;96391.81;5001252;28;20064;-56
2021/03/11 00:25:34;;;;;;;65.80;34.75;;;;;;;-6.96;66.76;96397.75;4987245;28;20053;-55
2021/03/11 00:28:04;;;;;;;64.40;35.70;;;;;;;-6.99;66.78;96392.06;5006290;28;20046;-56
2021/03/11 00:30:31;;;;;;;69.30;36.85;;;;;;;-7.06;66.98;96388.41;4987167;28;20082;-56
2021/03/11 00:32:59;;;;;;;74.07;36.78;;;;;;;-7.11;66.41;96388.81;4966721;28;20045;-55
2021/03/11 00:35:27;;;;;;;63.53;34.70;;;;;;;-7.15;66.63;96388.28;4992875;28;20058;-55
2021/03/11 00:37:54;;;;;;;69.63;34.83;;;;;;;-7.10;66.80;96387.88;4987849;28;21068;-55
2021/03/11 00:40:21;;;;;;;64.85;36.17;;;;;;;-7.15;66.91;96390.84;4969375;28;20084;-55
2021/03/11 00:42:50;;;;;;;63.17;32.70;;;;;;;-7.14;66.83;96382.22;5001583;28;20550;-55
2021/03/11 00:45:18;;;;;;;68.90;37.60;;;;;;;-7.23;66.61;96384.75;5009660;28;20057;-55
2021/03/11 00:47:47;;;;;;;63.38;33.78;;;;;;;-7.32;67.10;96381.25;4977014;28;20563;-56
2021/03/11 00:50:18;;;;;;;57.25;34.25;;;;;;;-7.29;66.81;96388.66;5002815;28;20045;-56
2021/03/11 00:52:47;;;;;;;66.57;34.78;;;;;;;-7.35;67.11;96381.50;4997687;28;20049;-55
2021/03/11 00:55:19;;;;;;;66.18;33.63;;;;;;;-7.36;67.27;96379.88;4987713;28;20049;-55
2021/03/11 00:57:47;;;;;;;68.10;32.17;;;;;;;-7.37;67.18;96378.25;5011576;28;20537;-55
2021/03/11 01:00:21;;;;;;;69.82;37.97;;;;;;;-7.36;67.05;96375.56;5010939;28;20077;-56
2021/03/11 01:02:58;;;;;;;64.13;34.42;;;;;;;-7.38;67.61;96381.75;4999169;28;20114;-55
2021/03/11 01:05:33;;;;;;;61.90;33.13;;;;;;;-7.41;67.59;96388.75;4984645;28;20102;-56
2021/03/11 01:08:08;;;;;;;71.07;36.20;;;;;;;-7.43;68.04;96379.59;4987443;28;20255;-56
2021/03/11 01:10:36;;;;;;;59.78;31.63;;;;;;;-7.44;67.54;96376.19;5012602;28;20497;-55
2021/03/11 01:13:04;;;;;;;74.20;34.47;;;;;;;-7.44;67.35;96375.41;5014000;28;20064;-56
2021/03/11 01:15:40;;;;;;;66.65;37.22;;;;;;;-7.45;67.60;96371.22;4981197;28;20053;-55
2021/03/11 01:18:10;;;;;;;75.85;35.03;;;;;;;-7.49;67.81;96367.28;5009739;28;20465;-56
2021/03/11 01:20:37;;;;;;;65.68;34.30;;;;;;;-7.54;67.88;96372.00;4986203;28;20064;-56
2021/03/11 01:23:04;;;;;;;61.00;33.28;;;;;;;-7.53;68.15;96379.56;5004126;28;20061;-56
2021/03/11 01:25:32;;;;;;;59.75;33.03;;;;;;;-7.58;67.75;96374.03;5005618;28;20056;-55
2021/03/11 01:28:00;;;;;;;65.72;35.10;;;;;;;-7.58;68.01;96371.47;5000583;28;20048;-55
2021/03/11 01:30:27;;;;;;;57.13;32.40;;;;;;;-7.61;67.82;96371.72;4981481;28;20046;-56
2021/03/11 01:32:55;;;;;;;68.28;33.40;;;;;;;-7.67;67.79;96372.22;5008334;28;20049;-55
2021/03/11 01:35:22;;;;;;;61.25;34.72;;;;;;;-7.77;68.66;96367.09;5009910;28;20053;-55
2021/03/11 01:37:49;;;;;;;64.43;32.95;;;;;;;-7.80;68.55;96357.09;4986045;28;20061;-55
2021/03/11 01:40:17;;;;;;;64.20;34.15;;;;;;;-7.74;68.51;96370.19;4997765;28;20052;-55
2021/03/11 01:42:45;;;;;;;70.53;32.75;;;;;;;-7.75;68.74;96365.19;5019340;28;20053;-56
2021/03/11 01:45:15;;;;;;;56.58;30.55;;;;;;;-7.77;69.11;96359.41;5015613;28;20723;-55
2021/03/11 01:47:42;;;;;;;60.30;32.05;;;;;;;-7.79;68.41;96356.97;4996399;28;20050;-55
2021/03/11 01:50:11;;;;;;;62.20;30.73;;;;;;;-7.82;69.50;96348.72;5001281;28;20056;-55
2021/03/11 01:52:39;;;;;;;56.33;29.52;;;;;;;-7.92;69.52;96341.00;5004450;28;20277;-56
2021/03/11 01:55:08;;;;;;;61.80;31.75;;;;;;;-7.92;69.06;96346.13;4989126;28;20061;-56
2021/03/11 01:57:36;;;;;;;55.63;28.55;;;;;;;-7.95;69.53;96341.28;5012732;28;20052;-55
2021/03/11 02:00:08;;;;;;;56.72;29.38;;;;;;;-7.96;68.99;96342.22;5018842;28;20684;-55
2021/03/11 02:02:44;;;;;;;61.67;29.95;;;;;;;-7.94;69.36;96340.34;4998765;28;20053;-55
2021/03/11 02:05:14;;;;;;;61.85;31.13;;;;;;;-7.97;69.02;96340.59;5009490;28;20339;-55
2021/03/11 02:07:43;;;;;;;59.53;31.17;;;;;;;-7.96;69.20;96337.09;4955847;28;20053;-56
2021/03/11 02:10:13;;;;;;;57.90;29.00;;;;;;;-7.96;69.39;96337.91;5019455;28;22166;-56
2021/03/11 02:12:43;;;;;;;58.10;29.45;;;;;;;-8.00;69.46;96333.16;4993493;28;20344;-55
2021/03/11 02:15:20;;;;;;;62.40;28.95;;;;;;;-8.07;69.13;96341.38;4999482;28;20050;-56
2021/03/11 02:17:56;;;;;;;60.53;30.17;;;;;;;-8.11;69.28;96332.31;4995434;28;20057;-57
2021/03/11 02:20:33;;;;;;;59.88;29.73;;;;;;;-8.10;69.35;96336.50;5017414;28;20049;-55
2021/03/11 02:23:23;;;;;;;54.63;28.83;;;;;;;-8.13;69.67;96328.28;5018441;28;20064;-55
2021/03/11 02:26:21;;;;;;;51.33;26.13;;;;;;;-8.14;69.60;96318.97;4990509;28;20062;-55
2021/03/11 02:29:01;;;;;;;59.53;28.55;;;;;;;-8.19;69.47;96316.81;4978910;28;20041;-56
2021/03/11 02:31:31;;;;;;;51.35;27.83;;;;;;;-8.19;68.79;96317.59;5010608;28;20060;-55
2021/03/11 02:34:04;;;;;;;50.42;27.88;;;;;;;-8.22;69.06;96317.84;5011272;28;20045;-55
2021/03/11 02:36:32;;;;;;;44.95;24.77;;;;;;;-8.27;69.86;96324.28;4978799;28;20413;-55
2021/03/11 02:39:04;;;;;;;56.38;26.75;;;;;;;-8.30;70.15;96316.88;5015833;28;20151;-55
2021/03/11 02:41:32;;;;;;;47.97;25.17;;;;;;;-8.30;70.36;96316.88;5016607;28;20049;-55
2021/03/11 02:43:59;;;;;;;52.10;25.92;;;;;;;-8.32;70.16;96318.78;4989727;28;20596;-56
2021/03/11 02:46:27;;;;;;;48.90;27.38;;;;;;;-8.40;69.87;96320.19;5017592;28;20207;-55
2021/03/11 02:48:55;;;;;;;55.50;26.50;;;;;;;-8.46;70.32;96312.22;5005431;28;20045;-55
2021/03/11 02:51:23;;;;;;;47.33;27.48;;;;;;;-8.47;70.32;96313.97;5002662;28;20041;-56
2021/03/11 02:53:51;;;;;;;43.85;26.10;;;;;;;-8.45;69.96;96319.78;4983845;28;20061;-55
2021/03/11 02:56:20;;;;;;;46.10;27.23;;;;;;;-8.45;69.85;96322.34;4985200;28;20057;-61
2021/03/11 02:58:49;;;;;;;52.58;25.13;;;;;;;-8.47;69.86;96313.97;4997552;28;20054;-56
2021/03/11 03:01:18;;;;;;;46.72;27.52;;;;;;;-8.48;69.60;96322.63;5009600;28;20324;-58
2021/03/11 03:03:47;;;;;;;46.58;25.23;;;;;;;-8.47;69.41;96308.88;4989681;28;20486;-55
2021/03/11 03:06:17;;;;;;;40.13;24.25;;;;;;;-8.48;69.81;96309.00;4986896;28;20049;-55
2021/03/11 03:08:46;;;;;;;44.88;24.67;;;;;;;-8.51;69.17;96302.41;4989024;28;20049;-55
2021/03/11 03:11:15;;;;;;;47.72;23.83;;;;;;;-8.52;69.84;96300.78;4983305;28;20061;-55
2021/03/11 03:13:43;;;;;;;52.95;27.00;;;;;;;-8.53;69.96;96299.16;5002279;28;20056;-55
2021/03/11 03:16:13;;;;;;;47.08;23.77;;;;;;;-8.55;69.79;96294.19;4988020;28;20056;-55
2021/03/11 03:18:41;;;;;;;42.92;24.35;;;;;;;-8.54;69.14;96295.78;5000577;28;20133;-55
2021/03/11 03:21:10;;;;;;;43.28;24.13;;;;;;;-8.54;69.85;96293.25;4980737;28;20052;-56
2021/03/11 03:23:42;;;;;;;49.03;21.80;;;;;;;-8.54;69.20;96290.69;4978632;28;20049;-55
2021/03/11 03:26:09;;;;;;;44.75;25.77;;;;;;;-8.56;69.50;96290.00;5007612;28;20057;-55
2021/03/11 03:28:37;;;;;;;45.67;23.63;;;;;;;-8.56;69.30;96284.09;5012773;28;20263;-55
2021/03/11 03:31:05;;;;;;;44.05;24.23;;;;;;;-8.56;69.75;96278.97;5004552;28;20056;-56
2021/03/11 03:33:34;;;;;;;51.10;26.00;;;;;;;-8.60;69.80;96270.72;5013543;28;20061;-55
2021/03/11 03:36:01;;;;;;;48.33;23.60;;;;;;;-8.62;69.23;96276.91;4997087;28;20057;-55
2021/03/11 03:38:29;;;;;;;42.80;24.13;;;;;;;-8.63;69.58;96277.84;5004591;28;20080;-55
2021/03/11 03:41:00;;;;;;;43.60;21.48;;;;;;;-8.67;69.18;96272.97;4971681;28;20052;-55
2021/03/11 03:43:32;;;;;;;42.85;20.77;;;;;;;-8.72;69.70;96271.72;5009769;28;20045;-55
2021/03/11 03:46:09;;;;;;;40.97;22.73;;;;;;;-8.72;69.77;96269.16;4969386;28;20060;-55
2021/03/11 03:48:42;;;;;;;43.75;22.38;;;;;;;-8.72;69.76;96275.09;5010088;28;20539;-55
2021/03/11 03:51:11;;;;;;;47.22;25.80;;;;;;;-8.72;69.71;96271.72;4966392;28;20056;-55
2021/03/11 03:53:49;;;;;;;43.47;23.13;;;;;;;-8.74;69.54;96269.31;5013562;28;20050;-55
2021/03/11 03:56:44;;;;;;;48.63;22.52;;;;;;;-8.73;69.73;96280.31;5004897;28;20061;-56
2021/03/11 03:59:20;;;;;;;40.15;20.83;;;;;;;-8.74;69.56;96282.09;5000398;28;20552;-55
2021/03/11 04:01:52;;;;;;;40.70;20.80;;;;;;;-8.77;69.63;96279.78;5002381;28;20556;-55
2021/03/11 04:04:20;;;;;;;40.55;20.73;;;;;;;-8.81;69.54;96270.75;5009695;28;20061;-56
2021/03/11 04:06:48;;;;;;;40.65;20.08;;;;;;;-8.81;69.56;96275.88;4997102;28;20744;-55
2021/03/11 04:09:17;;;;;;;41.13;22.55;;;;;;;-8.75;69.07;96289.91;4996469;28;20049;-55
2021/03/11 04:11:45;;;;;;;38.35;19.60;;;;;;;-8.78;69.88;96285.03;4981648;28;20049;-55
2021/03/11 04:14:13;;;;;;;40.55;21.25;;;;;;;-8.89;69.12;96273.13;5002178;28;20049;-56
2021/03/11 04:16:42;;;;;;;45.53;22.70;;;;;;;-8.83;69.62;96293.09;5000482;28;20041;-56
2021/03/11 04:19:10;;;;;;;42.90;23.73;;;;;;;-8.83;70.14;96287.97;4969002;28;20042;-56
2021/03/11 04:21:38;;;;;;;46.20;24.65;;;;;;;-8.84;70.15;96287.13;5010871;28;20049;-55
2021/03/11 04:24:07;;;;;;;52.25;25.98;;;;;;;-8.83;70.32;96286.22;4999674;28;20053;-55
2021/03/11 04:26:37;;;;;;;44.10;24.02;;;;;;;-8.83;70.42;96296.44;5014179;28;20060;-55
2021/03/11 04:29:05;;;;;;;51.13;27.42;;;;;;;-8.83;70.22;96293.09;5016197;28;20741;-55
2021/03/11 04:31:34;;;;;;;50.42;24.92;;;;;;;-8.87;70.04;96286.59;4981579;28;20072;-55
2021/03/11 04:34:04;;;;;;;51.20;27.48;;;;;;;-8.89;70.56;96296.94;4954732;28;20053;-55
2021/03/11 04:36:33;;;;;;;50.22;26.60;;;;;;;-8.88;70.66;96290.06;5009743;28;20060;-55
2021/03/11 04:39:01;;;;;;;43.75;24.15;;;;;;;-8.89;70.97;96285.91;5016844;28;20714;-55
2021/03/11 04:41:28;;;;;;;50.78;25.95;;;;;;;-8.94;71.26;96277.81;4993418;28;20069;-55
2021/03/11 04:43:59;;;;;;;44.22;25.60;;;;;;;-8.96;71.44;96277.91;5008549;28;20052;-55
2021/03/11 04:46:27;;;;;;;42.20;22.52;;;;;;;-8.98;71.11;96270.38;5017771;28;20055;-55
2021/03/11 04:48:58;;;;;;;48.97;22.30;;;;;;;-8.97;70.31;96274.56;5008036;28;20591;-55
2021/03/11 04:51:26;;;;;;;41.90;21.85;;;;;;;-8.97;70.75;96268.63;4979004;28;20049;-55
2021/03/11 04:53:54;;;;;;;44.38;22.83;;;;;;;-8.98;70.43;96262.72;5002984;28;20060;-55
2021/03/11 04:56:22;;;;;;;47.30;24.77;;;;;;;-8.90;70.46;96268.94;5028818;28;20548;-55
2021/03/11 04:58:50;;;;;;;49.78;27.40;;;;;;;-8.89;70.42;96265.44;4997962;28;20060;-55
2021/03/11 05:01:22;;;;;;;54.58;26.95;;;;;;;-8.88;70.71;96278.13;4994679;28;20048;-56
2021/03/11 05:03:50;;;;;;;51.47;25.50;;;;;;;-8.85;70.61;96274.50;4987046;28;20045;-56
2021/03/11 05:06:18;;;;;;;50.97;25.63;;;;;;;-8.84;70.80;96266.69;5024380;28;20053;-55
2021/03/11 05:08:45;;;;;;;58.03;26.92;;;;;;;-8.83;70.20;96254.72;4994575;28;20055;-55
2021/03/11 05:11:14;;;;;;;44.42;27.05;;;;;;;-8.75;71.75;96262.56;4976934;28;20920;-55
2021/03/11 05:13:41;;;;;;;52.13;24.00;;;;;;;-8.73;70.51;96260.69;5022167;28;20069;-55
2021/03/11 05:16:09;;;;;;;48.90;27.83;;;;;;;-8.75;70.15;96260.00;5021642;28;20053;-55
2021/03/11 05:18:36;;;;;;;41.88;22.70;;;;;;;-8.73;69.54;96258.16;5003064;28;20730;-55
2021/03/11 05:21:04;;;;;;;48.83;22.80;;;;;;;-8.71;69.49;96260.56;5022263;28;20044;-55
2021/03/11 05:23:33;;;;;;;31.30;19.70;;;;;;;-8.69;69.36;96259.53;5023967;28;20045;-55
2021/03/11 05:26:00;;;;;;;36.30;19.95;;;;;;;-8.66;69.03;96248.22;4998163;28;20053;-54
2021/03/11 05:28:27;;;;;;;42.92;21.58;;;;;;;-8.61;68.62;96261.41;5012071;28;20049;-54
2021/03/11 05:30:55;;;;;;;46.20;22.35;;;;;;;-8.56;69.23;96263.63;5009382;28;20041;-57
2021/03/11 05:33:22;;;;;;;43.60;24.25;;;;;;;-8.56;69.17;96259.31;5024121;28;20048;-55
2021/03/11 05:35:49;;;;;;;43.40;23.48;;;;;;;-8.45;68.78;96255.81;5028016;28;20053;-55
2021/03/11 05:38:17;;;;;;;45.63;22.67;;;;;;;-8.38;68.26;96259.47;5028844;28;20053;-54
2021/03/11 05:40:45;;;;;;;47.75;23.52;;;;;;;-8.34;68.61;96260.03;4994756;28;20052;-54
2021/03/11 05:43:14;;;;;;;47.30;23.98;;;;;;;-8.34;68.34;96258.28;5015064;28;20064;-55
2021/03/11 05:45:41;;;;;;;45.88;25.90;;;;;;;-8.35;68.61;96255.84;5010584;28;20408;-55
2021/03/11 05:48:16;;;;;;;65.32;29.52;;;;;;;-8.25;68.63;96250.78;5015414;28;20654;-55
2021/03/11 05:50:51;;;;;;;50.47;24.55;;;;;;;-8.14;69.05;96247.31;4998592;28;20037;-55
2021/03/11 05:53:21;;;;;;;51.72;26.42;;;;;;;-8.07;68.35;96253.53;5030626;28;20054;-54
2021/03/11 05:55:49;;;;;;;53.22;27.13;;;;;;;-8.07;68.61;96267.16;4996203;28;20053;-54
2021/03/11 05:58:19;;;;;;;51.28;26.50;;;;;;;-8.09;68.18;96263.06;5011344;28;20057;-55
2021/03/11 06:00:47;;;;;;;45.15;22.05;;;;;;;-8.04;67.58;96254.06;5024022;28;20049;-55
2021/03/11 06:03:15;;;;;;;43.60;22.08;;;;;;;-7.93;67.67;96240.34;5023608;28;20045;-56
2021/03/11 06:05:43;;;;;;;44.00;21.95;;;;;;;-7.84;66.60;96246.44;5014206;28;20413;-55
2021/03/11 06:08:11;;;;;;;47.20;21.85;;;;;;;-7.71;66.93;96248.75;5027622;28;20508;-55
2021/03/11 06:10:41;;;;;;;42.13;23.27;;;;;;;-7.55;66.63;96248.19;5013947;28;20044;-55
2021/03/11 06:13:10;;;;;;;45.17;23.48;;;;;;;-7.43;66.42;96246.34;4997589;28;20041;-55
2021/03/11 06:15:39;;;;;;;46.45;23.40;;;;;;;-7.27;65.59;96240.66;5013194;28;20609;-55
2021/03/11 06:18:09;;;;;;;42.63;24.63;;;;;;;-7.07;65.86;96240.63;5021757;28;20053;-55
2021/03/11 06:20:36;;;;;;;41.20;22.25;;;;;;;-6.89;65.28;96239.00;5029548;28;20053;-55
2021/03/11 06:23:04;;;;;;;56.20;27.88;;;;;;;-6.77;65.47;96241.41;5016814;28;20049;-55
2021/03/11 06:25:32;;;;;;;72.63;36.88;;;;;;;-6.68;64.70;96235.44;5011885;28;20049;-55
2021/03/11 06:28:01;;;;;;;67.72;38.72;;;;;;;-6.62;64.65;96222.06;4999142;28;20057;-55
2021/03/11 06:30:30;;;;;;;66.70;35.40;;;;;;;-6.56;64.79;96226.59;4978515;28;20077;-55
2021/03/11 06:32:58;;;;;;;63.38;35.45;;;;;;;-6.50;64.72;96230.38;5028747;28;20049;-55
2021/03/11 06:35:25;;;;;;;58.30;33.58;;;;;;;-6.44;65.00;96222.13;4997814;28;20063;-54
2021/03/11 06:37:52;;;;;;;57.60;30.02;;;;;;;-6.37;64.96;96217.22;5024519;28;20076;-54
2021/03/11 06:40:25;;;;;;;51.13;28.25;;;;;;;-6.26;64.94;96218.78;5011508;28;20498;-55
2021/03/11 06:43:08;;;;;;;51.85;26.92;;;;;;;-6.16;64.25;96224.69;4991564;28;20452;-54
2021/03/11 06:45:37;;;;;;;48.45;25.75;;;;;;;-6.16;64.41;96213.59;5024318;28;20433;-57
2021/03/11 06:48:20;;;;;;;63.38;28.15;;;;;;;-6.06;64.20;96220.31;4998114;28;20056;-55
2021/03/11 06:50:47;;;;;;;49.30;29.95;;;;;;;-6.02;64.12;96219.06;5027362;28;20037;-55
2021/03/11 06:53:15;;;;;;;53.97;30.55;;;;;;;-5.88;64.11;96220.31;5010978;28;20049;-57
2021/03/11 06:55:42;;;;;;;57.88;29.48;;;;;;;-5.81;64.03;96224.88;4988449;28;20049;-55
2021/03/11 06:58:23;;;;;;;59.70;31.30;;;;;;;-5.67;63.90;96226.94;5030279;28;20432;-55
2021/03/11 07:01:11;;;;;;;64.07;32.40;;;;;;;-5.61;64.06;96223.78;4995542;28;20045;-55
2021/03/11 07:03:47;;;;;;;59.97;30.08;;;;;;;-5.51;63.69;96226.28;5027593;28;20413;-55
2021/03/11 07:06:35;;;;;;;54.40;28.38;;;;;;;-5.41;63.19;96219.28;5012600;28;20538;-55
2021/03/11 07:09:05;;;;;;;48.58;26.48;;;;;;;-5.31;63.09;96218.44;5016132;28;20053;-55
2021/03/11 07:11:33;;;;;;;48.92;26.13;;;;;;;-5.23;63.35;96220.25;4985165;28;20672;-55
2021/03/11 07:14:03;;;;;;;46.95;26.95;;;;;;;-5.20;63.61;96225.09;5001330;28;20537;-55
2021/03/11 07:16:35;;;;;;;44.50;25.80;;;;;;;-5.10;63.33;96220.66;5030874;28;20068;-55
2021/03/11 07:19:11;;;;;;;50.20;23.73;;;;;;;-5.03;63.09;96213.97;5029330;28;20057;-55
2021/03/11 07:21:40;;;;;;;47.78;24.90;;;;;;;-4.85;62.84;96223.41;5012804;28;20057;-55
2021/03/11 07:24:07;;;;;;;40.08;23.92;;;;;;;-4.65;62.39;96211.97;5032230;28;20045;-56
2021/03/11 07:26:35;;;;;;;37.08;22.40;;;;;;;-4.49;61.83;96203.50;5010796;28;20045;-55
2021/03/11 07:29:17;;;;;;;36.72;20.92;;;;;;;-4.34;61.42;96201.16;5029626;28;20543;-55
2021/03/11 07:31:53;;;;;;;45.70;21.30;;;;;;;-4.24;60.16;96192.47;5013052;28;20997;-55
2021/03/11 07:34:24;;;;;;;35.42;19.25;;;;;;;-4.22;60.50;96195.72;5012560;28;20052;-56
2021/03/11 07:36:57;;;;;;;30.98;20.50;;;;;;;-4.10;60.67;96204.78;5027222;28;20054;-57
2021/03/11 07:39:37;;;;;;;36.05;21.15;;;;;;;-4.03;60.75;96192.91;4978002;28;20046;-55
2021/03/11 07:42:07;;;;;;;34.50;20.05;;;;;;;-3.98;60.23;96189.03;4992827;28;20445;-55
2021/03/11 07:44:35;;;;;;;36.22;20.80;;;;;;;-3.93;60.16;96184.22;5009877;28;20057;-55
2021/03/11 07:47:05;;;;;;;36.13;21.15;;;;;;;-3.83;60.27;96179.72;5027206;28;20149;-55
2021/03/11 07:49:33;;;;;;;43.78;23.23;;;;;;;-3.71;59.45;96180.25;5010415;28;20045;-55
2021/03/11 07:52:06;;;;;;;42.90;23.85;;;;;;;-3.55;59.71;96172.50;4994268;28;20505;-55
2021/03/11 07:54:34;;;;;;;38.10;21.98;;;;;;;-3.42;59.29;96178.94;4994732;28;20486;-55
2021/03/11 07:57:02;;;;;;;35.42;21.73;;;;;;;-3.33;58.38;96185.75;5008894;28;20058;-55
2021/03/11 07:59:30;;;;;;;44.78;22.17;;;;;;;-3.26;57.59;96178.97;5009934;28;20067;-55
2021/03/11 08:02:08;;;;;;;40.72;22.17;;;;;;;-3.24;57.53;96176.22;5006586;28;20387;-55
2021/03/11 08:04:41;;;;;;;35.97;23.52;;;;;;;-3.14;58.85;96173.47;4976201;28;20609;-55
2021/03/11 08:07:17;;;;;;;36.40;20.92;;;;;;;-3.01;57.30;96171.19;4961359;28;20120;-56
2021/03/11 08:09:48;;;;;;;35.03;21.90;;;;;;;-2.90;56.50;96167.47;5018656;28;20414;-55
2021/03/11 08:12:41;;;;;;;36.88;21.80;;;;;;;-2.82;56.16;96164.06;4990795;28;20054;-55
2021/03/11 08:15:17;;;;;;;36.78;23.52;;;;;;;-2.72;55.13;96171.63;5005298;28;20045;-56
2021/03/11 08:17:49;;;;;;;34.42;22.42;;;;;;;-2.70;56.17;96173.06;4990614;28;20513;-55
2021/03/11 08:20:20;;;;;;;35.78;22.23;;;;;;;-2.65;55.02;96165.63;4981423;28;20352;-56
2021/03/11 08:22:55;;;;;;;39.60;24.95;;;;;;;-2.63;55.18;96166.28;5000683;28;20056;-56
2021/03/11 08:25:43;;;;;;;40.53;25.50;;;;;;;-2.49;54.84;96164.78;5018250;28;20050;-55
2021/03/11 08:28:10;;;;;;;36.42;21.45;;;;;;;-2.33;54.78;96153.56;5003387;28;20076;-56
2021/03/11 08:30:41;;;;;;;31.23;19.77;;;;;;;-2.18;53.81;96152.84;5025578;28;20057;-56
2021/03/11 08:33:11;;;;;;;35.20;20.95;;;;;;;-2.04;54.74;96149.56;5008912;28;20050;-56
2021/03/11 08:35:40;;;;;;;33.70;21.25;;;;;;;-1.87;53.84;96158.00;5011294;28;20071;-56
2021/03/11 08:38:19;;;;;;;31.90;21.90;;;;;;;-1.72;53.31;96152.91;5009474;28;20434;-55
2021/03/11 08:41:05;;;;;;;31.67;21.70;;;;;;;-1.60;52.43;96158.50;4992953;28;20049;-56
2021/03/11 08:43:39;;;;;;;37.38;20.70;;;;;;;-1.50;51.36;96147.91;4995327;28;20421;-55
2021/03/11 08:46:14;;;;;;;35.22;23.08;;;;;;;-1.40;51.83;96156.25;5004643;28;20591;-59
2021/03/11 08:48:46;;;;;;;36.97;20.63;;;;;;;-1.29;51.07;96152.41;5020424;28;20057;-55
2021/03/11 08:51:18;;;;;;;34.80;21.25;;;;;;;-1.10;50.69;96145.16;5015404;28;20053;-55
2021/03/11 08:53:53;;;;;;;38.55;21.15;;;;;;;-0.96;51.29;96133.19;5012771;28;20053;-55
2021/03/11 08:56:21;;;;;;;42.38;23.13;;;;;;;-0.81;50.22;96126.25;4997648;28;20061;-57
2021/03/11 08:59:00;;;;;;;34.20;21.23;;;;;;;-0.62;50.47;96119.72;5032947;28;20053;-55
2021/03/11 09:01:36;;;;;;;32.60;20.75;;;;;;;-0.45;49.76;96113.53;4999698;28;20513;-56
2021/03/11 09:04:27;;;;;;;32.47;21.95;;;;;;;-0.33;49.63;96112.91;5028526;28;20049;-55
2021/03/11 09:06:58;;;;;;;37.33;20.60;;;;;;;-0.14;49.01;96112.50;5014746;28;20060;-55
2021/03/11 09:09:36;;;;;;;36.30;20.92;;;;;;;-0.01;48.95;96108.25;5012927;28;20055;-56
2021/03/11 09:12:08;;;;;;;34.38;21.48;;;;;;;0.22;48.77;96104.69;5024063;28;20053;-57
2021/03/11 09:14:36;;;;;;;33.90;21.10;;;;;;;0.44;47.70;96091.69;5014946;28;20072;-56
2021/03/11 09:17:10;;;;;;;31.83;21.25;;;;;;;0.67;47.68;96086.28;4997257;28;20064;-55
2021/03/11 09:19:47;;;;;;;30.75;21.75;;;;;;;0.96;46.65;96079.31;5028028;28;20959;-55
2021/03/11 09:22:19;;;;;;;41.60;25.50;;;;;;;1.26;46.32;96071.25;5027497;28;20050;-56
2021/03/11 09:25:00;;;;;;;34.03;21.52;;;;;;;1.53;44.86;96064.41;5022554;28;20049;-56
2021/03/11 09:27:29;;;;;;;30.52;20.17;;;;;;;1.64;44.34;96054.44;4997448;28;20716;-56
2021/03/11 09:30:11;;;;;;;27.45;19.65;;;;;;;1.86;44.96;96059.47;4991843;28;20072;-56
2021/03/11 09:32:39;;;;;;;34.67;19.55;;;;;;;1.92;44.19;96056.09;4998676;28;20894;-56
2021/03/11 09:35:11;;;;;;;28.88;20.02;;;;;;;2.08;43.58;96055.72;5027147;28;20064;-56
2021/03/11 09:38:01;;;;;;;35.85;19.40;;;;;;;2.23;42.83;96052.13;5005896;28;20695;-57
2021/03/11 09:40:31;;;;;;;26.48;17.27;;;;;;;2.42;41.68;96046.13;5025207;28;20053;-56
2021/03/11 09:43:22;;;;;;;36.00;17.35;;;;;;;2.68;40.39;96035.91;5011248;28;20914;-56
2021/03/11 09:46:12;;;;;;;27.45;18.13;;;;;;;2.88;39.91;96033.28;4991811;28;20868;-57
2021/03/11 09:48:44;;;;;;;23.95;17.83;;;;;;;3.18;40.12;96027.56;5023869;28;20063;-56
2021/03/11 09:51:17;;;;;;;27.48;17.20;;;;;;;3.43;38.61;96024.28;5027072;28;20045;-56
2021/03/11 09:53:59;;;;;;;27.63;17.38;;;;;;;3.60;38.04;96022.00;5021876;28;20069;-56
2021/03/11 09:56:28;;;;;;;34.38;21.88;;;;;;;3.72;39.12;96004.66;5028424;28;20076;-56
2021/03/11 09:59:03;;;;;;;38.95;23.55;;;;;;;3.90;39.48;96003.16;4997481;28;20532;-56
2021/03/11 10:01:32;;;;;;;26.17;17.85;;;;;;;3.82;38.15;96004.22;5024134;28;20056;-56
2021/03/11 10:04:23;;;;;;;26.17;17.23;;;;;;;3.88;37.94;95998.13;4980328;28;20060;-56
2021/03/11 10:07:00;;;;;;;24.00;15.82;;;;;;;3.93;36.14;95993.09;5016057;28;20075;-56
2021/03/11 10:09:40;;;;;;;24.77;16.10;;;;;;;3.95;35.90;95993.69;5025192;28;20057;-56
2021/03/11 10:12:08;;;;;;;25.48;14.02;;;;;;;4.07;34.46;95983.34;5027510;28;20054;-57
2021/03/11 10:14:37;;;;;;;23.50;13.00;;;;;;;4.09;34.63;95980.53;4994232;28;20726;-57
2021/03/11 10:17:06;;;;;;;26.13;14.65;;;;;;;4.07;34.06;95956.47;5028621;28;20508;-56
2021/03/11 10:19:36;;;;;;;22.30;14.23;;;;;;;4.26;34.30;95971.16;4996173;28;20053;-56
2021/03/11 10:22:10;;;;;;;20.77;14.25;;;;;;;4.30;33.47;95956.66;5002692;28;20042;-56
2021/03/11 10:24:38;;;;;;;26.35;14.32;;;;;;;4.33;100.00;95959.88;5006358;28;20488;-56
2021/03/11 10:27:25;;;;;;;22.70;14.43;;;;;;;4.43;100.00;80229.94;5024101;28;20513;-57
2021/03/11 10:30:12;;;;;;;24.13;14.80;;;;;;;-146.28;100.00;62448.88;5009500;28;20053;-56
2021/03/11 10:32:43;;;;;;;22.25;15.18;;;;;;;-146.28;100.00;62448.88;5012914;28;20045;-55
2021/03/11 10:35:23;;;;;;;22.25;14.73;;;;;;;-146.28;100.00;62448.88;5009960;28;20048;-55
2021/03/11 10:37:50;;;;;;;19.83;14.23;;;;;;;-146.28;100.00;62448.88;4992311;28;20054;-56
2021/03/11 10:40:25;;;;;;;26.08;15.00;;;;;;;-146.28;100.00;62448.88;5006274;28;20053;-56
2021/03/11 10:42:54;;;;;;;33.85;15.52;;;;;;;-146.28;100.00;62448.88;5012853;28;20044;-55
2021/03/11 10:45:27;;;;;;;18.75;13.55;;;;;;;-146.28;100.00;62448.88;5023891;28;20053;-55
2021/03/11 10:48:04;;;;;;;18.30;13.68;;;;;;;-146.28;100.00;62448.88;5028727;28;20405;-56
2021/03/11 10:50:52;;;;;;;18.77;13.82;;;;;;;-146.28;100.00;62448.88;5008356;28;20489;-54
2021/03/11 10:53:35;;;;;;;23.05;13.93;;;;;;;-146.28;100.00;62448.88;4994940;28;20057;-55
2021/03/11 10:56:07;;;;;;;21.02;14.10;;;;;;;-146.28;100.00;62448.88;5014366;28;20055;-56
2021/03/11 10:58:34;;;;;;;22.67;14.52;;;;;;;-146.28;100.00;62448.88;5009165;28;20080;-56
2021/03/11 11:01:17;;;;;;;24.58;14.30;;;;;;;-146.28;100.00;62448.88;5025040;28;20053;-55
2021/03/11 11:03:49;;;;;;;20.75;15.23;;;;;;;-146.28;100.00;62448.88;5027268;28;20811;-56
2021/03/11 11:06:19;;;;;;;22.67;13.75;;;;;;;-146.28;100.00;62448.88;4997232;28;20056;-56
2021/03/11 11:08:47;;;;;;;23.42;14.75;;;;;;;-146.28;100.00;62448.88;5005306;28;20049;-56
2021/03/11 11:11:17;;;;;;;19.92;15.02;;;;;;;-146.28;100.00;62448.88;5014828;28;20056;-55
2021/03/11 11:13:46;;;;;;;25.70;15.68;;;;;;;-146.28;100.00;62448.88;5013864;28;20041;-56
2021/03/11 11:16:15;;;;;;;23.17;16.17;;;;;;;-146.28;100.00;62448.88;5009500;28;20045;-56
2021/03/11 11:18:43;;;;;;;25.27;16.30;;;;;;;-146.28;100.00;62448.88;5026291;28;20523;-56
2021/03/11 11:21:12;;;;;;;22.15;14.30;;;;;;;-146.28;100.00;62448.88;5024413;28;20053;-56
2021/03/11 11:23:39;;;;;;;20.35;14.45;;;;;;;-146.28;100.00;62448.88;5024736;28;20421;-59
2021/03/11 11:26:06;;;;;;;22.23;15.20;;;;;;;-146.28;100.00;62448.88;5013126;28;20433;-59
2021/03/11 11:28:34;;;;;;;22.38;15.02;;;;;;;-146.28;100.00;62448.88;5025419;28;20064;-57
2021/03/11 11:31:01;;;;;;;20.40;14.98;;;;;;;-146.28;100.00;62448.88;5024730;28;20224;-56
2021/03/11 11:33:29;;;;;;;21.77;15.93;;;;;;;-146.28;100.00;62448.88;5018695;28;20041;-56
2021/03/11 11:35:56;;;;;;;24.58;15.40;;;;;;;-146.28;100.00;62448.88;5010705;28;20057;-55